Time;durP1;ratioP1;P1;durP2;ratioP2;P2;SDS_P1;SDS_P2;PMS_P1;PMS_P2;Temp;Humidity;BMP_temperature;BMP_pressure;BME280_temperature;BME280_humidity;BME280_pressure;Samples;Min_cycle;Max_cycle;Signal;HPM_P1;HPM_P2
2024/02/13 00:01:41;;;;;;;28.42;9.10;;;;;;;;;;5015708;28;20018;-46
2024/02/13 00:04:09;;;;;;;21.55;8.20;;;;;;;;;;5014219;28;20049;-48
2024/02/13 00:06:36;;;;;;;21.27;8.40;;;;;;;;;;5017841;28;20018;-50
2024/02/13 00:09:04;;;;;;;17.85;8.07;;;;;;;;;;5015239;28;20077;-48
2024/02/13 00:11:31;;;;;;;18.70;8.63;;;;;;;;;;5015002;28;20365;-46
2024/02/13 00:13:57;;;;;;;24.15;8.27;;;;;;;;;;5020594;28;20180;-49
2024/02/13 00:16:25;;;;;;;24.88;8.13;;;;;;;;;;5024416;28;20242;-46
2024/02/13 00:18:52;;;;;;;24.38;8.23;;;;;;;;;;5024929;28;20033;-45
2024/02/13 00:21:19;;;;;;;17.88;8.18;;;;;;;;;;5015071;28;20089;-54
2024/02/13 00:23:46;;;;;;;18.20;8.00;;;;;;;;;;5016056;28;20210;-46
2024/02/13 00:26:13;;;;;;;23.67;9.27;;;;;;;;;;5014115;28;20028;-47
2024/02/13 00:28:39;;;;;;;24.77;8.60;;;;;;;;;;5015349;28;20033;-61
2024/02/13 00:31:07;;;;;;;25.13;8.65;;;;;;;;;;5013277;28;20018;-52
2024/02/13 00:33:34;;;;;;;20.80;8.40;;;;;;;;;;5014060;28;20068;-47
2024/02/13 00:36:01;;;;;;;23.02;8.43;;;;;;;;;;5015028;28;20234;-46
2024/02/13 00:38:29;;;;;;;16.42;7.88;;;;;;;;;;5013311;28;20061;-45
2024/02/13 00:40:56;;;;;;;17.33;7.65;;;;;;;;;;5013694;28;20310;-44
2024/02/13 00:43:22;;;;;;;17.73;7.40;;;;;;;;;;5015197;28;20080;-51
2024/02/13 00:45:49;;;;;;;16.35;8.10;;;;;;;;;;5012915;28;20029;-47
2024/02/13 00:48:17;;;;;;;42.50;10.93;;;;;;;;;;5016605;28;20022;-44
2024/02/13 00:50:46;;;;;;;22.75;9.00;;;;;;;;;;5015408;28;20127;-44
2024/02/13 00:53:15;;;;;;;20.55;8.73;;;;;;;;;;5012727;28;20034;-47
2024/02/13 00:55:43;;;;;;;22.27;9.32;;;;;;;;;;4995783;28;20093;-45
2024/02/13 00:58:09;;;;;;;21.33;8.50;;;;;;;;;;5014940;28;20034;-49
2024/02/13 01:00:39;;;;;;;19.42;8.40;;;;;;;;;;5012958;28;20077;-45
2024/02/13 01:03:06;;;;;;;18.17;8.90;;;;;;;;;;5012843;28;20067;-49
2024/02/13 01:05:33;;;;;;;18.23;8.90;;;;;;;;;;5014613;28;20230;-50
2024/02/13 01:08:01;;;;;;;45.70;10.70;;;;;;;;;;5013570;28;20334;-51
2024/02/13 01:10:27;;;;;;;33.40;9.73;;;;;;;;;;5012774;28;20029;-53
2024/02/13 01:12:54;;;;;;;28.02;9.02;;;;;;;;;;5012631;28;20069;-50
2024/02/13 01:15:22;;;;;;;22.10;8.23;;;;;;;;;;5013588;28;20017;-52
2024/02/13 01:17:49;;;;;;;22.25;7.40;;;;;;;;;;5014338;28;20101;-55
2024/02/13 01:20:18;;;;;;;15.88;7.68;;;;;;;;;;5012676;28;20070;-56
2024/02/13 01:22:45;;;;;;;21.42;7.70;;;;;;;;;;5018817;28;20041;-53
2024/02/13 01:25:13;;;;;;;16.80;7.25;;;;;;;;;;4995022;28;20180;-49
2024/02/13 01:27:41;;;;;;;17.90;7.53;;;;;;;;;;5013670;28;20029;-47
2024/02/13 01:30:09;;;;;;;21.70;7.93;;;;;;;;;;5014216;28;20014;-51
2024/02/13 01:32:40;;;;;;;20.17;8.23;;;;;;;;;;5012206;28;20210;-53
2024/02/13 01:35:07;;;;;;;18.10;8.35;;;;;;;;;;5012888;28;20017;-53
2024/02/13 01:37:34;;;;;;;22.45;7.93;;;;;;;;;;5014229;28;20037;-52
2024/02/13 01:40:05;;;;;;;20.05;7.88;;;;;;;;;;5013226;28;20026;-51
2024/02/13 01:42:38;;;;;;;17.70;7.78;;;;;;;;;;5016663;28;20032;-46
2024/02/13 01:45:10;;;;;;;20.00;7.28;;;;;;;;;;5011794;28;20022;-47
2024/02/13 01:47:41;;;;;;;17.08;7.53;;;;;;;;;;5021065;28;20065;-48
2024/02/13 01:50:08;;;;;;;16.00;7.05;;;;;;;;;;5023221;28;20026;-49
2024/02/13 01:52:36;;;;;;;19.15;7.57;;;;;;;;;;5022677;28;20048;-53
2024/02/13 01:55:03;;;;;;;16.00;7.18;;;;;;;;;;5017127;28;20061;-48
2024/02/13 01:57:32;;;;;;;19.10;8.15;;;;;;;;;;5016988;28;20022;-49
2024/02/13 01:59:59;;;;;;;20.45;7.63;;;;;;;;;;5023108;28;20026;-49
2024/02/13 02:02:26;;;;;;;20.77;8.55;;;;;;;;;;5022926;28;20029;-48
2024/02/13 02:04:54;;;;;;;17.27;8.50;;;;;;;;;;5022921;28;20053;-48
2024/02/13 02:07:21;;;;;;;23.05;8.30;;;;;;;;;;5024898;28;20083;-52
2024/02/13 02:09:47;;;;;;;19.58;8.40;;;;;;;;;;5026803;28;20017;-49
2024/02/13 02:12:14;;;;;;;17.88;7.78;;;;;;;;;;5023279;28;20401;-43
2024/02/13 02:14:43;;;;;;;14.00;7.72;;;;;;;;;;5024304;28;20067;-48
2024/02/13 02:17:09;;;;;;;19.77;7.88;;;;;;;;;;5017881;28;20029;-44
2024/02/13 02:19:36;;;;;;;16.80;7.88;;;;;;;;;;5018400;28;20199;-50
2024/02/13 02:22:06;;;;;;;19.63;7.45;;;;;;;;;;5026815;28;20041;-44
2024/02/13 02:24:34;;;;;;;18.02;7.85;;;;;;;;;;5027072;28;20041;-44
2024/02/13 02:27:02;;;;;;;22.30;8.20;;;;;;;;;;5026035;28;20025;-54
2024/02/13 02:29:28;;;;;;;23.40;9.85;;;;;;;;;;5026385;28;20057;-45
2024/02/13 02:31:55;;;;;;;30.10;17.98;;;;;;;;;;5025193;28;20049;-50
2024/02/13 02:34:21;;;;;;;47.80;31.17;;;;;;;;;;5026730;28;20088;-51
2024/02/13 02:36:52;;;;;;;56.50;36.90;;;;;;;;;;5008937;28;20024;-48
2024/02/13 02:39:19;;;;;;;71.95;46.00;;;;;;;;;;5026832;28;20033;-50
2024/02/13 02:41:49;;;;;;;56.47;32.95;;;;;;;;;;5026289;28;20213;-47
2024/02/13 02:44:15;;;;;;;76.57;37.28;;;;;;;;;;5026001;28;20026;-46
2024/02/13 02:46:42;;;;;;;68.35;35.05;;;;;;;;;;5025842;28;20021;-54
2024/02/13 02:49:09;;;;;;;77.63;35.22;;;;;;;;;;5026546;28;20085;-54
2024/02/13 02:51:35;;;;;;;61.00;31.92;;;;;;;;;;5026208;28;20021;-57
2024/02/13 02:54:02;;;;;;;53.78;27.77;;;;;;;;;;5008640;28;20049;-57
2024/02/13 02:56:30;;;;;;;46.88;25.90;;;;;;;;;;5024914;28;20021;-57
2024/02/13 02:58:57;;;;;;;41.22;22.20;;;;;;;;;;5026408;28;20089;-55
2024/02/13 03:01:24;;;;;;;39.55;19.63;;;;;;;;;;5024747;28;20024;-54
2024/02/13 03:03:51;;;;;;;29.42;15.63;;;;;;;;;;5024857;28;20245;-52
2024/02/13 03:06:18;;;;;;;30.30;15.10;;;;;;;;;;5025469;28;20028;-54
2024/02/13 03:08:45;;;;;;;23.13;13.13;;;;;;;;;;5006561;28;20034;-56
2024/02/13 03:11:12;;;;;;;27.02;11.50;;;;;;;;;;5006015;28;20022;-54
2024/02/13 03:13:39;;;;;;;23.38;10.98;;;;;;;;;;5006341;28;20025;-55
2024/02/13 03:16:05;;;;;;;22.73;10.90;;;;;;;;;;5021867;28;20021;-56
2024/02/13 03:18:32;;;;;;;25.20;10.48;;;;;;;;;;5023974;28;20033;-55
2024/02/13 03:20:59;;;;;;;18.42;9.10;;;;;;;;;;5023044;28;20068;-54
2024/02/13 03:23:25;;;;;;;22.02;9.35;;;;;;;;;;5023947;28;20036;-55
2024/02/13 03:25:52;;;;;;;16.40;8.18;;;;;;;;;;5024001;28;20026;-55
2024/02/13 03:28:18;;;;;;;18.02;8.23;;;;;;;;;;5025687;28;20029;-54
2024/02/13 03:30:45;;;;;;;17.85;8.50;;;;;;;;;;5024129;28;20018;-56
2024/02/13 03:33:12;;;;;;;18.10;8.63;;;;;;;;;;5023971;28;20096;-53
2024/02/13 03:35:38;;;;;;;14.63;7.93;;;;;;;;;;5025390;28;20022;-57
2024/02/13 03:38:05;;;;;;;18.60;8.43;;;;;;;;;;5025633;28;20196;-56
2024/02/13 03:40:32;;;;;;;17.70;8.40;;;;;;;;;;5025358;28;20016;-56
2024/02/13 03:43:00;;;;;;;22.95;8.02;;;;;;;;;;5025562;28;20098;-54
2024/02/13 03:45:26;;;;;;;20.65;7.85;;;;;;;;;;5025162;28;20025;-56
2024/02/13 03:47:53;;;;;;;17.92;8.10;;;;;;;;;;5025232;28;20106;-53
2024/02/13 03:50:20;;;;;;;15.02;6.60;;;;;;;;;;5025457;28;20066;-55
2024/02/13 03:52:47;;;;;;;15.13;7.90;;;;;;;;;;5024677;28;20056;-56
2024/02/13 03:55:13;;;;;;;18.17;7.88;;;;;;;;;;5024965;28;20033;-55
2024/02/13 03:57:40;;;;;;;15.55;7.40;;;;;;;;;;5024976;28;20191;-56
2024/02/13 04:00:10;;;;;;;15.15;7.30;;;;;;;;;;5024720;28;20084;-56
2024/02/13 04:02:39;;;;;;;14.68;7.80;;;;;;;;;;5024746;28;20026;-55
2024/02/13 04:05:06;;;;;;;22.08;8.40;;;;;;;;;;5024810;28;20054;-55
2024/02/13 04:07:35;;;;;;;13.63;7.35;;;;;;;;;;5025190;28;20022;-59
2024/02/13 04:10:03;;;;;;;16.35;8.00;;;;;;;;;;5025088;28;20237;-57
2024/02/13 04:12:29;;;;;;;16.48;7.82;;;;;;;;;;5024912;28;20317;-56
2024/02/13 04:14:56;;;;;;;15.18;8.10;;;;;;;;;;5025029;28;20029;-54
2024/02/13 04:17:23;;;;;;;19.40;7.38;;;;;;;;;;5024784;28;20022;-57
2024/02/13 04:19:50;;;;;;;21.30;8.45;;;;;;;;;;5024926;28;20166;-55
2024/02/13 04:22:17;;;;;;;15.45;7.75;;;;;;;;;;5024717;28;20018;-56
2024/02/13 04:24:43;;;;;;;21.08;8.75;;;;;;;;;;5024607;28;20025;-54
2024/02/13 04:27:10;;;;;;;19.35;9.35;;;;;;;;;;5023455;28;20107;-56
2024/02/13 04:29:36;;;;;;;20.52;7.85;;;;;;;;;;5024507;28;20022;-58
2024/02/13 04:32:03;;;;;;;18.85;8.02;;;;;;;;;;5024264;28;20033;-55
2024/02/13 04:34:30;;;;;;;18.83;8.77;;;;;;;;;;5024947;28;20054;-56
2024/02/13 04:36:58;;;;;;;15.25;7.97;;;;;;;;;;5024598;28;20238;-57
2024/02/13 04:39:25;;;;;;;17.00;9.05;;;;;;;;;;5024657;28;20026;-53
2024/02/13 04:41:51;;;;;;;15.52;7.90;;;;;;;;;;5024363;28;20021;-57
2024/02/13 04:44:19;;;;;;;15.82;7.65;;;;;;;;;;5024323;28;20030;-57
2024/02/13 04:46:45;;;;;;;17.95;7.97;;;;;;;;;;5024193;28;20310;-56
2024/02/13 04:49:12;;;;;;;18.15;8.82;;;;;;;;;;5024790;28;20045;-56
2024/02/13 04:51:38;;;;;;;18.08;8.15;;;;;;;;;;5024621;28;20018;-59
2024/02/13 04:54:05;;;;;;;16.00;7.78;;;;;;;;;;5024666;28;20287;-55
2024/02/13 04:56:33;;;;;;;17.10;8.00;;;;;;;;;;5024147;28;20028;-57
2024/02/13 04:59:02;;;;;;;13.75;8.07;;;;;;;;;;5024552;28;20033;-57
2024/02/13 05:01:29;;;;;;;18.08;8.15;;;;;;;;;;5023961;28;20374;-58
2024/02/13 05:09:37;;;;;;;18.92;8.57;;;;;;;;;;5024550;28;20364;-56
2024/02/13 05:12:06;;;;;;;16.27;7.55;;;;;;;;;;5023894;28;20034;-60
2024/02/13 05:14:33;;;;;;;19.45;8.07;;;;;;;;;;5024396;28;20037;-57
2024/02/13 05:17:01;;;;;;;15.73;7.97;;;;;;;;;;5024452;28;20018;-57
2024/02/13 05:19:28;;;;;;;17.30;7.93;;;;;;;;;;5024236;28;20089;-53
2024/02/13 05:21:55;;;;;;;18.75;8.90;;;;;;;;;;5024290;28;20014;-57
2024/02/13 05:24:22;;;;;;;18.10;8.32;;;;;;;;;;5024606;28;20104;-56
2024/02/13 05:26:48;;;;;;;12.73;7.50;;;;;;;;;;5023923;28;20018;-54
2024/02/13 05:29:15;;;;;;;15.32;8.52;;;;;;;;;;5024379;28;20034;-55
2024/02/13 05:31:41;;;;;;;19.35;8.13;;;;;;;;;;5024342;28;20037;-58
2024/02/13 05:34:09;;;;;;;16.90;8.60;;;;;;;;;;5024559;28;20294;-56
2024/02/13 05:36:36;;;;;;;16.02;7.88;;;;;;;;;;5024053;28;20026;-57
2024/02/13 05:39:03;;;;;;;14.65;7.97;;;;;;;;;;5024632;28;20085;-55
2024/02/13 05:41:30;;;;;;;13.55;7.25;;;;;;;;;;5025827;28;20024;-56
2024/02/13 05:43:56;;;;;;;18.52;8.70;;;;;;;;;;5028150;28;20048;-60
2024/02/13 05:46:24;;;;;;;17.33;8.10;;;;;;;;;;5027597;28;20022;-56
2024/02/13 05:48:54;;;;;;;16.52;8.20;;;;;;;;;;5027581;28;20056;-54
2024/02/13 05:51:20;;;;;;;16.88;7.82;;;;;;;;;;5027610;28;20027;-58
2024/02/13 05:53:47;;;;;;;19.38;8.52;;;;;;;;;;5027822;28;20088;-57
2024/02/13 05:56:14;;;;;;;16.85;8.25;;;;;;;;;;5027406;28;20022;-55
2024/02/13 05:58:40;;;;;;;13.63;8.13;;;;;;;;;;5027497;28;20088;-55
2024/02/13 06:01:12;;;;;;;14.98;8.27;;;;;;;;;;5027245;28;20018;-56
2024/02/13 06:03:39;;;;;;;16.95;8.40;;;;;;;;;;5026903;28;20057;-53
2024/02/13 06:06:05;;;;;;;17.73;8.40;;;;;;;;;;5027324;28;20033;-55
2024/02/13 06:08:34;;;;;;;17.20;8.02;;;;;;;;;;5027608;28;20053;-57
2024/02/13 06:11:00;;;;;;;16.10;8.10;;;;;;;;;;5027026;28;20033;-56
2024/02/13 06:13:27;;;;;;;13.65;7.47;;;;;;;;;;5027604;28;20029;-57
2024/02/13 06:15:54;;;;;;;14.95;7.80;;;;;;;;;;5027245;28;20014;-55
2024/02/13 06:18:21;;;;;;;16.42;8.07;;;;;;;;;;5027161;28;20026;-56
2024/02/13 06:20:48;;;;;;;15.88;8.07;;;;;;;;;;5027180;28;20274;-56
2024/02/13 06:23:14;;;;;;;14.38;7.55;;;;;;;;;;5027184;28;20337;-54
2024/02/13 06:25:41;;;;;;;17.17;7.57;;;;;;;;;;5027339;28;20076;-55
2024/02/13 06:28:08;;;;;;;12.25;7.28;;;;;;;;;;5027491;28;20302;-56
2024/02/13 06:30:35;;;;;;;12.43;7.32;;;;;;;;;;5026711;28;20025;-51
2024/02/13 06:33:01;;;;;;;16.75;8.07;;;;;;;;;;5026930;28;20089;-56
2024/02/13 06:35:28;;;;;;;17.15;8.10;;;;;;;;;;5026592;28;20022;-56
2024/02/13 06:37:54;;;;;;;14.40;7.60;;;;;;;;;;5026538;28;20033;-56
2024/02/13 06:40:21;;;;;;;16.35;8.02;;;;;;;;;;5026383;28;20016;-55
2024/02/13 06:42:48;;;;;;;16.83;8.05;;;;;;;;;;5026760;28;20076;-56
2024/02/13 06:45:14;;;;;;;15.18;7.90;;;;;;;;;;5026917;28;20341;-54
2024/02/13 06:47:41;;;;;;;16.63;8.00;;;;;;;;;;5026775;28;20045;-57
2024/02/13 06:50:11;;;;;;;14.85;7.70;;;;;;;;;;5026662;28;20214;-57
2024/02/13 06:52:38;;;;;;;17.25;8.05;;;;;;;;;;5025527;28;20040;-55
2024/02/13 06:55:07;;;;;;;17.23;7.78;;;;;;;;;;5026352;28;20022;-57
2024/02/13 06:57:35;;;;;;;14.90;7.22;;;;;;;;;;5026548;28;20290;-57
2024/02/13 07:00:07;;;;;;;15.27;7.75;;;;;;;;;;5026020;28;20025;-57
2024/02/13 07:02:35;;;;;;;16.10;7.50;;;;;;;;;;5025732;28;20041;-56
2024/02/13 07:05:03;;;;;;;15.90;7.75;;;;;;;;;;5025806;28;20056;-57
2024/02/13 07:07:30;;;;;;;15.52;7.05;;;;;;;;;;5025822;28;20026;-55
2024/02/13 07:09:56;;;;;;;15.48;8.27;;;;;;;;;;5026314;28;20183;-56
2024/02/13 07:12:23;;;;;;;13.90;7.10;;;;;;;;;;5025963;28;20314;-55
2024/02/13 07:14:54;;;;;;;13.02;7.20;;;;;;;;;;5025826;28;20421;-56
2024/02/13 07:17:20;;;;;;;13.17;6.90;;;;;;;;;;5025612;28;20191;-59
2024/02/13 07:19:47;;;;;;;12.60;7.22;;;;;;;;;;5025648;28;20096;-60
2024/02/13 07:22:14;;;;;;;16.33;6.68;;;;;;;;;;5025592;28;20029;-61
2024/02/13 07:24:41;;;;;;;16.52;8.18;;;;;;;;;;5025857;28;20025;-55
2024/02/13 07:27:07;;;;;;;15.40;8.02;;;;;;;;;;5026133;28;20026;-55
2024/02/13 07:29:37;;;;;;;12.50;6.88;;;;;;;;;;5026570;28;20045;-57
2024/02/13 07:32:03;;;;;;;13.80;6.80;;;;;;;;;;5025508;28;20181;-56
2024/02/13 07:34:37;;;;;;;16.58;7.22;;;;;;;;;;5026051;28;20025;-57
2024/02/13 07:37:03;;;;;;;14.77;7.47;;;;;;;;;;5025789;28;20022;-56
2024/02/13 07:39:30;;;;;;;15.38;7.10;;;;;;;;;;5025878;28;20022;-56
2024/02/13 07:41:57;;;;;;;13.40;6.95;;;;;;;;;;5025323;28;20028;-55
2024/02/13 07:44:23;;;;;;;14.60;7.72;;;;;;;;;;5025858;28;20026;-52
2024/02/13 07:46:50;;;;;;;12.43;7.15;;;;;;;;;;5025201;28;20045;-57
2024/02/13 07:49:16;;;;;;;11.98;7.10;;;;;;;;;;5026464;28;20029;-56
2024/02/13 07:51:44;;;;;;;11.75;7.13;;;;;;;;;;5025465;28;20020;-54
2024/02/13 07:54:12;;;;;;;16.67;7.45;;;;;;;;;;5025645;28;20029;-56
2024/02/13 07:56:40;;;;;;;11.80;6.75;;;;;;;;;;5025528;28;20018;-55
2024/02/13 07:59:09;;;;;;;12.60;7.20;;;;;;;;;;5024841;28;20317;-57
2024/02/13 08:01:35;;;;;;;12.02;7.15;;;;;;;;;;5025067;28;20085;-58
2024/02/13 08:04:02;;;;;;;15.02;7.85;;;;;;;;;;5023990;28;20060;-58
2024/02/13 08:06:29;;;;;;;15.30;6.97;;;;;;;;;;5024658;28;20214;-54
2024/02/13 08:08:55;;;;;;;11.73;6.68;;;;;;;;;;5025464;28;20086;-55
2024/02/13 08:11:22;;;;;;;11.65;7.13;;;;;;;;;;5024967;28;20412;-53
2024/02/13 08:13:49;;;;;;;16.27;6.80;;;;;;;;;;5025083;28;20036;-55
2024/02/13 08:16:15;;;;;;;15.05;7.40;;;;;;;;;;5024917;28;20045;-56
2024/02/13 08:18:42;;;;;;;14.20;6.85;;;;;;;;;;5025286;28;20026;-53
2024/02/13 08:21:08;;;;;;;13.05;7.35;;;;;;;;;;5024874;28;20029;-54
2024/02/13 08:23:35;;;;;;;14.02;6.88;;;;;;;;;;5025120;28;20037;-56
2024/02/13 08:26:02;;;;;;;11.77;6.97;;;;;;;;;;5025067;28;20068;-56
2024/02/13 08:28:30;;;;;;;16.75;6.55;;;;;;;;;;5024792;28;20040;-53
2024/02/13 08:30:57;;;;;;;16.05;7.30;;;;;;;;;;5024852;28;20028;-53
2024/02/13 08:33:23;;;;;;;14.07;7.80;;;;;;;;;;5025120;28;20093;-54
2024/02/13 08:35:54;;;;;;;11.55;6.97;;;;;;;;;;5024930;28;20268;-57
2024/02/13 08:38:21;;;;;;;14.82;7.57;;;;;;;;;;5024550;28;20238;-54
2024/02/13 08:40:48;;;;;;;12.63;7.07;;;;;;;;;;5024586;28;20017;-53
2024/02/13 08:43:15;;;;;;;15.23;7.20;;;;;;;;;;5024581;28;20041;-55
2024/02/13 08:45:41;;;;;;;10.93;6.53;;;;;;;;;;5024198;28;20037;-58
2024/02/13 08:48:08;;;;;;;11.05;6.68;;;;;;;;;;5025045;28;20206;-53
2024/02/13 08:50:35;;;;;;;13.18;7.00;;;;;;;;;;5024806;28;20365;-57
2024/02/13 08:53:01;;;;;;;15.00;6.93;;;;;;;;;;5024731;28;20057;-54
2024/02/13 08:55:28;;;;;;;10.95;6.10;;;;;;;;;;5024316;28;20408;-55
2024/02/13 08:57:56;;;;;;;10.93;6.20;;;;;;;;;;5024462;28;20018;-58
2024/02/13 09:00:23;;;;;;;13.85;6.68;;;;;;;;;;5024170;28;20041;-54
2024/02/13 09:02:49;;;;;;;12.48;6.45;;;;;;;;;;5024372;28;20058;-58
2024/02/13 09:05:16;;;;;;;12.07;6.95;;;;;;;;;;5024338;28;20096;-54
2024/02/13 09:07:42;;;;;;;16.95;6.68;;;;;;;;;;5024375;28;20030;-60
2024/02/13 09:10:11;;;;;;;13.88;6.07;;;;;;;;;;5024367;28;20046;-54
2024/02/13 09:12:44;;;;;;;13.63;6.03;;;;;;;;;;5024475;28;20030;-59
2024/02/13 09:15:12;;;;;;;13.07;6.18;;;;;;;;;;5024226;28;20322;-53
2024/02/13 09:17:43;;;;;;;11.18;5.90;;;;;;;;;;5028113;28;20085;-53
2024/02/13 09:20:21;;;;;;;12.43;5.93;;;;;;;;;;5027974;28;20021;-55
2024/02/13 09:22:49;;;;;;;11.68;5.90;;;;;;;;;;5027826;28;20390;-54
2024/02/13 09:25:22;;;;;;;11.35;6.22;;;;;;;;;;5011853;28;20275;-54
2024/02/13 09:27:49;;;;;;;12.90;5.63;;;;;;;;;;5024298;28;20034;-55
2024/02/13 09:30:17;;;;;;;10.20;5.97;;;;;;;;;;5027853;28;20038;-57
2024/02/13 09:32:47;;;;;;;9.38;5.88;;;;;;;;;;5027881;28;20218;-53
2024/02/13 09:35:14;;;;;;;12.63;6.00;;;;;;;;;;5027790;28;20029;-56
2024/02/13 09:37:42;;;;;;;15.13;6.00;;;;;;;;;;5027930;28;20026;-53
2024/02/13 09:40:13;;;;;;;14.50;6.38;;;;;;;;;;5027959;28;20018;-55
2024/02/13 09:42:41;;;;;;;11.23;5.50;;;;;;;;;;5027785;28;20191;-53
2024/02/13 09:45:09;;;;;;;11.48;5.88;;;;;;;;;;5027494;28;20032;-56
2024/02/13 09:47:38;;;;;;;11.90;6.35;;;;;;;;;;5027514;28;20033;-53
2024/02/13 09:50:12;;;;;;;14.80;5.65;;;;;;;;;;5027917;28;20025;-55
2024/02/13 09:52:49;;;;;;;15.60;6.40;;;;;;;;;;5027646;28;20246;-54
2024/02/13 09:55:16;;;;;;;12.20;6.10;;;;;;;;;;5027920;28;20029;-52
2024/02/13 09:57:45;;;;;;;13.02;5.35;;;;;;;;;;5027525;28;20210;-53
2024/02/13 10:00:19;;;;;;;12.40;6.05;;;;;;;;;;5027264;28;20077;-56
2024/02/13 10:02:50;;;;;;;11.63;5.53;;;;;;;;;;5027249;28;20194;-53
2024/02/13 10:05:18;;;;;;;10.05;5.70;;;;;;;;;;5027223;28;20209;-58
2024/02/13 10:07:44;;;;;;;10.80;5.13;;;;;;;;;;5027076;28;20076;-56
2024/02/13 10:10:11;;;;;;;13.45;5.68;;;;;;;;;;5027734;28;20088;-57
2024/02/13 10:12:39;;;;;;;11.70;5.75;;;;;;;;;;5027072;28;20057;-55
2024/02/13 10:15:08;;;;;;;9.13;6.05;;;;;;;;;;5026937;28;20026;-55
2024/02/13 10:17:35;;;;;;;11.07;5.38;;;;;;;;;;5027164;28;20072;-53
2024/02/13 10:20:02;;;;;;;10.70;6.13;;;;;;;;;;5027089;28;20018;-56
2024/02/13 10:22:30;;;;;;;15.68;6.72;;;;;;;;;;5026652;28;20018;-55
2024/02/13 10:25:00;;;;;;;13.45;5.50;;;;;;;;;;5026849;28;20179;-55
2024/02/13 10:27:28;;;;;;;11.60;6.03;;;;;;;;;;5025847;28;20077;-55
2024/02/13 10:29:55;;;;;;;8.95;5.53;;;;;;;;;;5026929;28;20321;-56
2024/02/13 10:32:22;;;;;;;11.80;6.20;;;;;;;;;;5026952;28;20068;-59
2024/02/13 10:34:49;;;;;;;10.65;5.53;;;;;;;;;;5026870;28;20022;-59
2024/02/13 10:37:17;;;;;;;10.98;5.35;;;;;;;;;;5026751;28;20119;-56
2024/02/13 10:39:47;;;;;;;12.35;5.50;;;;;;;;;;5026879;28;20092;-58
2024/02/13 10:42:15;;;;;;;11.00;5.93;;;;;;;;;;5026974;28;20025;-55
2024/02/13 10:44:45;;;;;;;12.63;5.80;;;;;;;;;;5026277;28;20030;-55
2024/02/13 10:47:16;;;;;;;13.43;5.97;;;;;;;;;;5026512;28;20029;-57
2024/02/13 10:49:58;;;;;;;12.45;5.57;;;;;;;;;;5026479;28;20050;-62
2024/02/13 10:52:26;;;;;;;16.35;7.18;;;;;;;;;;5026320;28;20027;-56
2024/02/13 10:54:53;;;;;;;17.63;7.00;;;;;;;;;;5026209;28;20025;-56
2024/02/13 10:57:22;;;;;;;25.38;11.02;;;;;;;;;;5026226;28;20018;-55
2024/02/13 10:59:50;;;;;;;19.40;12.25;;;;;;;;;;5026080;28;20085;-54
2024/02/13 11:02:20;;;;;;;31.00;9.48;;;;;;;;;;5026246;28;20329;-55
2024/02/13 11:04:48;;;;;;;23.90;8.20;;;;;;;;;;5025708;28;20042;-61
2024/02/13 11:07:15;;;;;;;21.55;7.97;;;;;;;;;;5025359;28;20057;-55
2024/02/13 11:09:42;;;;;;;30.15;10.45;;;;;;;;;;5025940;28;20021;-53
2024/02/13 11:12:09;;;;;;;27.00;8.30;;;;;;;;;;5025722;28;20017;-56
2024/02/13 11:14:36;;;;;;;31.85;9.38;;;;;;;;;;5026045;28;20033;-56
2024/02/13 11:17:08;;;;;;;23.58;9.43;;;;;;;;;;5026337;28;20021;-55
2024/02/13 11:19:41;;;;;;;17.27;7.32;;;;;;;;;;5025426;28;20328;-56
2024/02/13 11:22:12;;;;;;;16.88;7.30;;;;;;;;;;5025633;28;20049;-56
2024/02/13 11:25:01;;;;;;;19.23;7.28;;;;;;;;;;5024187;28;20053;-53
2024/02/13 11:27:28;;;;;;;26.13;8.40;;;;;;;;;;5024103;28;20029;-54
2024/02/13 11:29:59;;;;;;;22.42;8.05;;;;;;;;;;5024756;28;20053;-52
2024/02/13 11:32:28;;;;;;;20.92;7.88;;;;;;;;;;5024561;28;20049;-54
2024/02/13 11:35:16;;;;;;;18.73;7.65;;;;;;;;;;5021209;28;20041;-51
2024/02/13 11:37:43;;;;;;;21.35;8.30;;;;;;;;;;5024840;28;20022;-49
2024/02/13 11:40:12;;;;;;;19.08;7.68;;;;;;;;;;5024816;28;20029;-55
2024/02/13 11:42:40;;;;;;;13.73;8.00;;;;;;;;;;5025117;28;20028;-57
2024/02/13 11:45:06;;;;;;;18.50;7.38;;;;;;;;;;5025484;28;20038;-56
2024/02/13 11:47:33;;;;;;;15.48;7.80;;;;;;;;;;5025319;28;20045;-54
2024/02/13 11:50:01;;;;;;;24.75;8.60;;;;;;;;;;5025479;28;20021;-51
2024/02/13 11:52:28;;;;;;;20.02;8.82;;;;;;;;;;5025016;28;20048;-54
2024/02/13 11:54:55;;;;;;;20.52;8.52;;;;;;;;;;5024506;28;20337;-56
2024/02/13 11:57:24;;;;;;;15.10;8.45;;;;;;;;;;5024891;28;20321;-52
2024/02/13 12:00:01;;;;;;;12.93;7.75;;;;;;;;;;5022754;28;20093;-51
2024/02/13 12:02:28;;;;;;;25.25;8.93;;;;;;;;;;5024888;28;20032;-53
2024/02/13 12:04:58;;;;;;;23.75;9.15;;;;;;;;;;5024595;28;20075;-49
2024/02/13 12:07:26;;;;;;;33.17;10.60;;;;;;;;;;5024331;28;20317;-46
2024/02/13 12:09:53;;;;;;;26.73;9.77;;;;;;;;;;5024550;28;20033;-55
2024/02/13 12:12:20;;;;;;;28.02;9.15;;;;;;;;;;5023705;28;20053;-47
2024/02/13 12:14:49;;;;;;;25.13;10.32;;;;;;;;;;5024811;28;20021;-56
2024/02/13 12:17:16;;;;;;;26.58;10.23;;;;;;;;;;5024514;28;20021;-53
2024/02/13 12:19:43;;;;;;;26.30;9.32;;;;;;;;;;5024733;28;20026;-47
2024/02/13 12:22:10;;;;;;;19.88;8.57;;;;;;;;;;5024604;28;20229;-48
2024/02/13 12:24:40;;;;;;;22.00;8.50;;;;;;;;;;5025025;28;20341;-43
2024/02/13 12:27:10;;;;;;;15.30;7.90;;;;;;;;;;5025143;28;20318;-50
2024/02/13 12:29:40;;;;;;;16.63;7.55;;;;;;;;;;5025094;28;20234;-52
2024/02/13 12:32:16;;;;;;;18.08;7.32;;;;;;;;;;5023708;28;20022;-43
2024/02/13 12:34:46;;;;;;;20.85;7.93;;;;;;;;;;5023954;28;20030;-46
2024/02/13 12:37:16;;;;;;;14.50;7.25;;;;;;;;;;5023963;28;20021;-50
2024/02/13 12:39:43;;;;;;;18.17;7.53;;;;;;;;;;5023332;28;20026;-47
2024/02/13 12:42:13;;;;;;;13.55;7.07;;;;;;;;;;5023963;28;20022;-54
2024/02/13 12:44:40;;;;;;;14.98;7.13;;;;;;;;;;5024158;28;20030;-51
2024/02/13 12:47:14;;;;;;;14.73;7.40;;;;;;;;;;5024385;28;20317;-53
2024/02/13 12:49:43;;;;;;;11.93;6.13;;;;;;;;;;5024385;28;20068;-60
2024/02/13 12:52:11;;;;;;;13.23;6.97;;;;;;;;;;5023564;28;20218;-54
2024/02/13 12:54:44;;;;;;;17.52;7.38;;;;;;;;;;5024912;28;20032;-47
2024/02/13 12:57:11;;;;;;;12.82;6.70;;;;;;;;;;5024741;28;20021;-51
2024/02/13 12:59:38;;;;;;;12.93;7.15;;;;;;;;;;5023952;28;20034;-57
2024/02/13 13:02:08;;;;;;;16.25;7.13;;;;;;;;;;5024170;28;20081;-56
2024/02/13 13:04:38;;;;;;;15.00;7.55;;;;;;;;;;5024156;28;20057;-50
2024/02/13 13:07:05;;;;;;;18.40;7.25;;;;;;;;;;5024272;28;20010;-48
2024/02/13 13:09:32;;;;;;;49.50;10.25;;;;;;;;;;5023865;28;20068;-46
2024/02/13 13:11:59;;;;;;;48.25;10.77;;;;;;;;;;5023292;28;20020;-50
2024/02/13 13:14:29;;;;;;;109.82;18.25;;;;;;;;;;5024461;28;20041;-53
2024/02/13 13:16:55;;;;;;;81.90;15.20;;;;;;;;;;5024139;28;20041;-52
2024/02/13 13:19:25;;;;;;;48.08;10.98;;;;;;;;;;5024030;28;20049;-50
2024/02/13 13:21:53;;;;;;;43.80;11.27;;;;;;;;;;5023425;28;20372;-55
2024/02/13 13:24:19;;;;;;;41.70;9.98;;;;;;;;;;5024107;28;20214;-48
2024/02/13 13:26:47;;;;;;;29.50;8.60;;;;;;;;;;5022446;28;20265;-50
2024/02/13 13:29:16;;;;;;;27.38;8.70;;;;;;;;;;5021869;28;20026;-54
2024/02/13 13:31:44;;;;;;;21.15;8.07;;;;;;;;;;5023347;28;20045;-56
2024/02/13 13:34:15;;;;;;;25.35;9.00;;;;;;;;;;5022363;28;20217;-48
2024/02/13 13:36:42;;;;;;;16.60;7.25;;;;;;;;;;5023669;28;20337;-54
2024/02/13 13:39:09;;;;;;;22.88;7.90;;;;;;;;;;5024235;28;20030;-59
2024/02/13 13:41:39;;;;;;;18.08;6.88;;;;;;;;;;5023071;28;20036;-46
2024/02/13 13:44:06;;;;;;;15.65;6.80;;;;;;;;;;5023654;28;20049;-44
2024/02/13 13:46:33;;;;;;;16.13;6.88;;;;;;;;;;5023201;28;20068;-49
2024/02/13 13:49:04;;;;;;;13.63;7.00;;;;;;;;;;5023922;28;20209;-52
2024/02/13 13:51:33;;;;;;;14.60;7.07;;;;;;;;;;5022770;28;20022;-50
2024/02/13 13:53:59;;;;;;;13.98;6.88;;;;;;;;;;5023002;28;20017;-51
2024/02/13 13:56:26;;;;;;;15.50;7.40;;;;;;;;;;5023456;28;20021;-52
2024/02/13 13:58:53;;;;;;;16.13;6.88;;;;;;;;;;5023060;28;20037;-50
2024/02/13 14:01:19;;;;;;;14.05;7.13;;;;;;;;;;5023822;28;20325;-53
2024/02/13 14:03:46;;;;;;;13.38;6.55;;;;;;;;;;5027026;28;20117;-52
2024/02/13 14:06:13;;;;;;;13.40;6.75;;;;;;;;;;5027382;28;20137;-51
2024/02/13 14:08:40;;;;;;;17.85;6.50;;;;;;;;;;5026806;28;20029;-51
2024/02/13 14:11:10;;;;;;;14.80;6.60;;;;;;;;;;5026873;28;20025;-48
2024/02/13 14:13:36;;;;;;;12.75;6.35;;;;;;;;;;5026925;28;20034;-51
2024/02/13 14:16:03;;;;;;;14.90;6.38;;;;;;;;;;5026296;28;20050;-53
2024/02/13 14:18:30;;;;;;;15.77;5.90;;;;;;;;;;5026970;28;20113;-59
2024/02/13 14:20:57;;;;;;;10.63;5.82;;;;;;;;;;5026854;28;20025;-53
2024/02/13 14:23:23;;;;;;;14.52;5.82;;;;;;;;;;5026980;28;20314;-48
2024/02/13 14:25:50;;;;;;;9.05;5.70;;;;;;;;;;5026627;28;20029;-50
2024/02/13 14:28:17;;;;;;;27.88;7.72;;;;;;;;;;5026964;28;20051;-51
2024/02/13 14:30:44;;;;;;;16.85;6.38;;;;;;;;;;5026620;28;20021;-53
2024/02/13 14:33:11;;;;;;;19.73;7.07;;;;;;;;;;5026270;28;20267;-52
2024/02/13 14:35:39;;;;;;;19.60;6.88;;;;;;;;;;5026533;28;20022;-57
2024/02/13 14:38:07;;;;;;;14.90;6.85;;;;;;;;;;5026813;28;20028;-50